createdAt,value
2018-10-09T00:01:21.897Z,15.60
2018-10-09T00:03:56.941Z,15.93
2018-10-09T00:06:31.617Z,19.00
2018-10-09T00:09:08.460Z,15.93
2018-10-09T00:11:43.748Z,16.03
2018-10-09T00:14:18.505Z,20.70
2018-10-09T00:16:53.352Z,18.30
2018-10-09T00:19:28.356Z,16.23
2018-10-09T00:22:03.501Z,18.10
2018-10-09T00:24:38.394Z,14.47
2018-10-09T00:27:13.362Z,16.93
2018-10-09T00:29:48.603Z,15.23
2018-10-09T00:32:18.089Z,21.43
2018-10-09T00:34:48.243Z,19.93
2018-10-09T00:37:24.410Z,19.30
2018-10-09T00:39:59.801Z,18.33
2018-10-09T00:42:34.961Z,23.93
2018-10-09T00:45:10.480Z,18.80
2018-10-09T00:47:47.314Z,22.30
2018-10-09T00:50:22.363Z,19.40
2018-10-09T00:52:57.234Z,19.87
2018-10-09T00:55:32.230Z,24.97
2018-10-09T00:58:07.672Z,16.40
2018-10-09T01:00:42.660Z,21.87
2018-10-09T01:03:17.946Z,22.60
2018-10-09T01:05:52.842Z,17.17
2018-10-09T01:08:28.079Z,17.73
2018-10-09T01:11:03.244Z,19.93
2018-10-09T01:13:38.016Z,19.63
2018-10-09T01:16:13.309Z,20.60
2018-10-09T01:18:48.605Z,20.37
2018-10-09T01:21:23.850Z,18.33
2018-10-09T01:23:58.724Z,19.93
2018-10-09T01:26:34.691Z,24.87
2018-10-09T01:29:09.714Z,22.30
2018-10-09T01:31:44.654Z,21.47
2018-10-09T01:34:19.380Z,18.43
2018-10-09T01:36:54.948Z,23.13
2018-10-09T01:39:30.035Z,25.07
2018-10-09T01:42:05.829Z,19.87
2018-10-09T01:44:41.009Z,23.90
2018-10-09T01:47:16.164Z,18.80
2018-10-09T01:49:50.981Z,18.90
2018-10-09T01:52:25.746Z,25.13
2018-10-09T01:55:00.585Z,23.70
2018-10-09T01:57:35.482Z,27.53
2018-10-09T02:00:11.961Z,21.70
2018-10-09T02:02:47.032Z,21.43
2018-10-09T02:05:21.841Z,25.47
2018-10-09T02:07:56.615Z,19.60
2018-10-09T02:10:31.396Z,19.83
2018-10-09T02:13:06.698Z,26.03
2018-10-09T02:15:41.823Z,22.17
2018-10-09T02:18:16.744Z,26.93
2018-10-09T02:20:51.642Z,18.83
2018-10-09T02:23:26.621Z,18.77
2018-10-09T02:26:01.771Z,20.77
2018-10-09T02:28:36.432Z,19.70
2018-10-09T02:31:11.457Z,22.27
2018-10-09T02:33:46.815Z,20.20
2018-10-09T02:36:22.273Z,22.63
2018-10-09T02:38:57.135Z,22.63
2018-10-09T02:41:31.846Z,25.13
2018-10-09T02:44:07.403Z,23.43
2018-10-09T02:46:42.743Z,20.27
2018-10-09T02:49:17.727Z,22.93
2018-10-09T02:51:52.468Z,23.40
2018-10-09T02:54:27.596Z,20.77
2018-10-09T02:57:03.213Z,24.40
2018-10-09T02:59:38.712Z,19.70
2018-10-09T03:02:13.770Z,19.47
2018-10-09T03:04:49.561Z,24.53
2018-10-09T03:07:24.472Z,24.70
2018-10-09T03:09:59.456Z,20.43
2018-10-09T03:12:34.357Z,20.70
2018-10-09T03:15:09.554Z,26.47
2018-10-09T03:17:44.737Z,19.53
2018-10-09T03:20:19.664Z,21.67
2018-10-09T03:22:54.916Z,19.60
2018-10-09T03:25:26.429Z,19.83
2018-10-09T03:28:01.089Z,22.73
2018-10-09T03:30:36.536Z,22.00
2018-10-09T03:33:11.371Z,19.77
2018-10-09T03:35:46.165Z,27.23
2018-10-09T03:38:21.115Z,22.20
2018-10-09T03:40:56.486Z,21.73
2018-10-09T03:43:31.612Z,28.13
2018-10-09T03:46:06.744Z,24.87
2018-10-09T03:48:42.341Z,26.00
2018-10-09T03:51:17.159Z,19.13
2018-10-09T03:53:52.876Z,24.30
2018-10-09T03:56:27.958Z,22.43
2018-10-09T03:59:03.098Z,22.17
2018-10-09T04:01:38.707Z,20.37
2018-10-09T04:04:13.770Z,21.40
2018-10-09T04:06:48.605Z,19.27
2018-10-09T04:09:23.442Z,25.53
2018-10-09T04:11:58.673Z,21.03
2018-10-09T04:14:33.765Z,20.50
2018-10-09T04:17:08.605Z,24.47
2018-10-09T04:19:43.661Z,23.03
2018-10-09T04:22:21.766Z,24.70
2018-10-09T04:24:56.636Z,20.63
2018-10-09T04:27:31.534Z,20.73
2018-10-09T04:30:06.754Z,21.50
2018-10-09T04:32:41.826Z,20.10
2018-10-09T04:35:16.445Z,19.67
2018-10-09T04:37:51.593Z,20.10
2018-10-09T04:40:26.534Z,20.60
2018-10-09T04:43:02.297Z,21.80
2018-10-09T04:45:37.688Z,23.03
2018-10-09T04:48:12.686Z,21.73
2018-10-09T04:50:48.473Z,21.13
2018-10-09T04:53:23.333Z,19.77
2018-10-09T04:55:58.483Z,20.57
2018-10-09T04:58:33.507Z,20.97
2018-10-09T05:01:08.463Z,21.77
2018-10-09T05:03:43.285Z,23.13
2018-10-09T05:06:18.228Z,17.77
2018-10-09T05:08:53.114Z,21.93
2018-10-09T05:11:27.965Z,21.97
2018-10-09T05:14:02.786Z,21.43
2018-10-09T05:16:37.817Z,18.70
2018-10-09T05:19:12.656Z,23.03
2018-10-09T05:21:47.348Z,19.50
2018-10-09T05:24:19.074Z,22.90
2018-10-09T05:26:54.300Z,23.67
2018-10-09T05:29:29.110Z,21.87
2018-10-09T05:32:04.080Z,22.37
2018-10-09T05:34:39.481Z,23.40
2018-10-09T05:37:14.220Z,22.50
2018-10-09T05:39:49.114Z,21.03
2018-10-09T05:42:23.874Z,20.50
2018-10-09T05:44:58.967Z,22.13
2018-10-09T05:47:34.154Z,23.50
2018-10-09T05:50:10.216Z,25.50
2018-10-09T05:52:45.085Z,27.27
2018-10-09T05:55:20.822Z,23.07
2018-10-09T05:57:55.876Z,23.13
2018-10-09T06:00:31.079Z,20.27
2018-10-09T06:03:07.101Z,25.77
2018-10-09T06:05:41.943Z,25.50
2018-10-09T06:08:16.740Z,24.77
2018-10-09T06:10:51.708Z,22.27
2018-10-09T06:13:26.489Z,23.37
2018-10-09T06:16:01.743Z,24.57
2018-10-09T06:18:36.598Z,23.10
2018-10-09T06:21:11.433Z,27.97
2018-10-09T06:23:46.912Z,23.47
2018-10-09T06:26:22.013Z,22.93
2018-10-09T06:28:57.117Z,23.03
2018-10-09T06:31:33.162Z,22.80
2018-10-09T06:34:08.255Z,28.37
2018-10-09T06:36:43.298Z,27.93
2018-10-09T06:39:18.479Z,21.90
2018-10-09T06:41:53.501Z,21.37
2018-10-09T06:44:28.401Z,22.20
2018-10-09T06:47:03.614Z,21.73
2018-10-09T06:49:38.620Z,21.60
2018-10-09T06:52:13.632Z,23.57
2018-10-09T06:54:48.584Z,21.30
2018-10-09T06:57:24.343Z,23.93
2018-10-09T06:59:59.524Z,22.27
2018-10-09T07:02:34.594Z,24.27
2018-10-09T07:05:10.029Z,27.77
2018-10-09T07:07:45.254Z,23.03
2018-10-09T07:10:20.236Z,25.43
2018-10-09T07:12:55.409Z,26.47
2018-10-09T07:15:31.126Z,26.20
2018-10-09T07:18:06.396Z,30.10
2018-10-09T07:20:41.264Z,22.57
2018-10-09T07:23:16.058Z,25.10
2018-10-09T07:25:51.091Z,25.00
2018-10-09T07:28:26.667Z,34.30
2018-10-09T07:31:01.497Z,26.70
2018-10-09T07:33:36.935Z,33.63
2018-10-09T07:36:12.838Z,29.50
2018-10-09T07:38:47.894Z,28.30
2018-10-09T07:41:23.051Z,29.03
2018-10-09T07:43:58.165Z,22.70
2018-10-09T07:46:33.193Z,24.50
2018-10-09T07:49:08.173Z,26.97
2018-10-09T07:51:42.942Z,33.77
2018-10-09T07:54:18.647Z,26.07
2018-10-09T07:56:54.608Z,30.63
2018-10-09T07:59:29.400Z,27.70
2018-10-09T08:02:04.184Z,33.40
2018-10-09T08:04:39.271Z,31.93
2018-10-09T08:07:14.480Z,26.87
2018-10-09T08:09:50.136Z,32.10
2018-10-09T08:12:25.538Z,29.17
2018-10-09T08:15:00.234Z,28.60
2018-10-09T08:17:36.097Z,34.57
2018-10-09T08:20:11.482Z,33.70
2018-10-09T08:22:47.213Z,33.10
2018-10-09T08:25:22.751Z,35.17
2018-10-09T08:27:57.662Z,28.37
2018-10-09T08:30:32.986Z,28.70
2018-10-09T08:33:08.069Z,30.47
2018-10-09T08:35:43.361Z,28.67
2018-10-09T08:38:18.437Z,36.17
2018-10-09T08:40:53.550Z,29.47
2018-10-09T08:43:28.292Z,32.80
2018-10-09T08:46:02.155Z,37.87
2018-10-09T08:48:37.247Z,29.03
2018-10-09T08:51:13.748Z,27.30
2018-10-09T08:53:48.586Z,33.33
2018-10-09T08:56:23.494Z,42.80
2018-10-09T08:58:58.623Z,28.20
2018-10-09T09:01:34.082Z,30.27
2018-10-09T09:04:09.499Z,30.33
2018-10-09T09:06:44.358Z,27.43
2018-10-09T09:09:19.372Z,34.43
2018-10-09T09:11:54.162Z,34.90
2018-10-09T09:14:29.261Z,32.13
2018-10-09T09:17:04.299Z,35.23
2018-10-09T09:19:39.251Z,31.67
2018-10-09T09:22:14.106Z,42.30
2018-10-09T09:24:49.035Z,34.20
2018-10-09T09:27:24.084Z,33.10
2018-10-09T09:29:59.100Z,31.40
2018-10-09T09:32:34.028Z,31.43
2018-10-09T09:35:09.283Z,35.70
2018-10-09T09:37:44.866Z,36.17
2018-10-09T09:40:20.213Z,37.77
2018-10-09T09:42:55.071Z,31.00
2018-10-09T09:45:30.496Z,37.67
2018-10-09T09:48:05.451Z,35.20
2018-10-09T09:50:40.547Z,37.93
2018-10-09T09:53:15.948Z,35.10
2018-10-09T09:55:50.681Z,32.47
2018-10-09T09:58:22.834Z,35.63
2018-10-09T10:01:02.629Z,34.60
2018-10-09T10:03:38.517Z,32.47
2018-10-09T10:06:13.944Z,36.00
2018-10-09T10:08:49.083Z,34.17
2018-10-09T10:11:24.063Z,34.43
2018-10-09T10:13:59.180Z,36.37
2018-10-09T10:16:36.507Z,34.00
2018-10-09T10:19:12.214Z,33.33
2018-10-09T10:21:48.332Z,30.80
2018-10-09T10:24:23.317Z,34.37
2018-10-09T10:26:58.143Z,34.30
2018-10-09T10:29:33.437Z,36.63
2018-10-09T10:32:08.735Z,32.43
2018-10-09T10:34:44.078Z,33.40
2018-10-09T10:37:19.392Z,33.03
2018-10-09T10:39:55.006Z,31.07
2018-10-09T10:42:30.232Z,30.20
2018-10-09T10:45:06.000Z,33.40
2018-10-09T10:47:35.412Z,33.80
2018-10-09T10:50:10.792Z,33.90
2018-10-09T10:52:46.411Z,32.90
2018-10-09T10:55:22.044Z,33.07
2018-10-09T10:57:56.930Z,39.33
2018-10-09T11:00:31.875Z,41.83
2018-10-09T11:03:07.372Z,37.23
2018-10-09T11:05:42.598Z,39.40
2018-10-09T11:08:17.598Z,42.07
2018-10-09T11:10:52.718Z,36.70
2018-10-09T11:13:33.284Z,36.50
2018-10-09T11:16:08.721Z,32.93
2018-10-09T11:18:43.834Z,41.93
2018-10-09T11:21:18.930Z,40.90
2018-10-09T11:23:53.874Z,39.93
2018-10-09T11:26:28.561Z,41.87
2018-10-09T11:29:03.445Z,39.43
2018-10-09T11:31:38.584Z,40.93
2018-10-09T11:34:13.935Z,34.40
2018-10-09T11:36:49.492Z,42.17
2018-10-09T11:39:25.003Z,34.00
2018-10-09T11:42:00.420Z,41.20
2018-10-09T11:44:35.437Z,35.67
2018-10-09T11:47:10.619Z,43.30
2018-10-09T11:49:45.543Z,35.50
2018-10-09T11:52:20.793Z,35.03
2018-10-09T11:54:55.872Z,36.10
2018-10-09T11:57:31.077Z,33.33
2018-10-09T12:00:06.813Z,35.07
2018-10-09T12:02:41.925Z,34.13
2018-10-09T12:05:16.743Z,36.10
2018-10-09T12:07:52.117Z,33.47
2018-10-09T12:10:27.123Z,32.70
2018-10-09T12:13:02.833Z,34.10
2018-10-09T12:15:37.627Z,36.27
2018-10-09T12:18:12.987Z,36.07
2018-10-09T12:20:48.820Z,34.57
2018-10-09T12:23:24.797Z,41.13
2018-10-09T12:25:59.780Z,35.57
2018-10-09T12:28:34.768Z,35.23
2018-10-09T12:31:10.199Z,34.33
2018-10-09T12:33:44.915Z,31.00
2018-10-09T12:36:19.814Z,34.50
2018-10-09T12:38:54.790Z,38.50
2018-10-09T12:41:29.578Z,31.73
2018-10-09T12:44:04.639Z,31.73
2018-10-09T12:46:40.218Z,37.70
2018-10-09T12:49:15.178Z,37.33
2018-10-09T12:51:50.443Z,36.57
2018-10-09T12:54:25.691Z,27.57
2018-10-09T12:57:00.861Z,27.87
2018-10-09T12:59:36.110Z,31.30
2018-10-09T13:02:11.498Z,32.50
2018-10-09T13:04:46.384Z,31.20
2018-10-09T13:07:21.567Z,32.23
2018-10-09T13:09:56.456Z,35.70
2018-10-09T13:12:31.419Z,31.00
2018-10-09T13:15:07.277Z,29.73
2018-10-09T13:17:42.356Z,29.47
2018-10-09T13:20:17.409Z,28.80
2018-10-09T13:22:52.361Z,30.20
2018-10-09T13:25:28.552Z,32.80
2018-10-09T13:28:03.795Z,29.07
2018-10-09T13:30:38.974Z,25.07
2018-10-09T13:33:13.794Z,26.13
2018-10-09T13:35:49.060Z,27.63
2018-10-09T13:38:24.181Z,34.57
2018-10-09T13:40:59.109Z,27.53
2018-10-09T13:43:34.113Z,26.00
2018-10-09T13:46:09.681Z,30.67
2018-10-09T13:48:44.883Z,27.57
2018-10-09T13:51:20.856Z,28.77
2018-10-09T13:53:55.750Z,25.43
2018-10-09T13:56:30.858Z,22.27
2018-10-09T13:59:06.184Z,22.00
2018-10-09T14:01:45.004Z,19.80
2018-10-09T14:04:20.163Z,20.00
2018-10-09T14:06:55.476Z,24.10
2018-10-09T14:09:30.728Z,15.17
2018-10-09T14:12:06.501Z,19.20
2018-10-09T14:14:41.406Z,18.20
2018-10-09T14:17:16.246Z,19.20
2018-10-09T14:19:51.070Z,22.67
2018-10-09T14:22:26.459Z,26.90
2018-10-09T14:25:01.644Z,20.30
2018-10-09T14:27:37.042Z,17.70
2018-10-09T14:30:11.836Z,18.20
2018-10-09T14:32:46.733Z,16.87
2018-10-09T14:35:21.769Z,18.10
2018-10-09T14:37:56.744Z,17.80
2018-10-09T14:40:32.036Z,17.93
2018-10-09T14:43:07.620Z,18.83
2018-10-09T14:45:42.616Z,15.60
2018-10-09T14:48:17.293Z,18.30
2018-10-09T14:50:52.176Z,14.77
2018-10-09T14:53:27.160Z,18.63
2018-10-09T14:56:02.004Z,20.27
2018-10-09T14:58:37.797Z,22.40
2018-10-09T15:01:12.792Z,20.10
2018-10-09T15:03:47.948Z,21.10
2018-10-09T15:06:22.949Z,22.23
2018-10-09T15:08:57.934Z,15.67
2018-10-09T15:11:33.271Z,19.90
2018-10-09T15:14:08.136Z,17.80
2018-10-09T15:16:42.868Z,17.77
2018-10-09T15:19:18.223Z,19.90
2018-10-09T15:21:53.397Z,15.10
2018-10-09T15:24:28.214Z,19.63
2018-10-09T15:27:03.092Z,16.40
2018-10-09T15:29:38.089Z,26.30
2018-10-09T15:32:13.110Z,19.40
2018-10-09T15:34:48.137Z,30.50
2018-10-09T15:37:28.064Z,24.03
2018-10-09T15:40:04.029Z,25.60
2018-10-09T15:42:39.955Z,21.83
2018-10-09T15:45:15.143Z,23.10
2018-10-09T15:47:51.122Z,22.23
2018-10-09T15:50:26.989Z,26.30
2018-10-09T15:53:04.779Z,19.93
2018-10-09T15:55:40.101Z,20.70
2018-10-09T15:58:15.418Z,21.90
2018-10-09T16:00:51.141Z,24.73
2018-10-09T16:03:26.184Z,25.50
2018-10-09T16:06:01.322Z,23.60
2018-10-09T16:08:36.445Z,23.30
2018-10-09T16:11:11.453Z,20.00
2018-10-09T16:13:46.099Z,19.70
2018-10-09T16:16:22.063Z,22.00
2018-10-09T16:18:56.813Z,22.20
2018-10-09T16:21:31.680Z,26.37
2018-10-09T16:24:06.563Z,23.83
2018-10-09T16:26:41.750Z,24.73
2018-10-09T16:29:17.175Z,24.53
2018-10-09T16:31:52.401Z,20.57
2018-10-09T16:34:27.312Z,24.23
2018-10-09T16:37:02.251Z,23.80
2018-10-09T16:39:37.416Z,22.70
2018-10-09T16:42:12.542Z,24.03
2018-10-09T16:44:47.445Z,22.30
2018-10-09T16:47:22.486Z,23.10
2018-10-09T16:49:57.803Z,22.57
2018-10-09T16:52:32.950Z,22.37
2018-10-09T16:55:07.700Z,23.80
2018-10-09T16:57:42.797Z,23.23
2018-10-09T17:00:17.680Z,23.60
2018-10-09T17:02:53.050Z,23.13
2018-10-09T17:05:28.237Z,23.07
2018-10-09T17:08:03.184Z,24.37
2018-10-09T17:10:39.331Z,22.07
2018-10-09T17:13:14.454Z,19.60
2018-10-09T17:15:43.744Z,17.80
2018-10-09T17:18:18.794Z,18.83
2018-10-09T17:20:54.134Z,19.17
2018-10-09T17:23:29.253Z,18.10
2018-10-09T17:26:04.953Z,19.07
2018-10-09T17:28:39.977Z,19.67
2018-10-09T17:31:15.150Z,18.30
2018-10-09T17:33:50.143Z,17.80
2018-10-09T17:36:25.240Z,19.53
2018-10-09T17:39:00.339Z,19.40
2018-10-09T17:41:35.619Z,21.63
2018-10-09T17:44:10.875Z,21.80
2018-10-09T17:46:46.150Z,18.10
2018-10-09T17:49:21.441Z,19.63
2018-10-09T17:51:56.456Z,18.50
2018-10-09T17:54:32.110Z,20.80
2018-10-09T17:57:07.318Z,21.57
2018-10-09T17:59:42.328Z,21.03
2018-10-09T18:02:17.716Z,23.17
2018-10-09T18:04:53.373Z,20.60
2018-10-09T18:07:28.813Z,18.47
2018-10-09T18:10:03.759Z,20.60
2018-10-09T18:12:38.759Z,20.30
2018-10-09T18:15:15.068Z,20.50
2018-10-09T18:17:50.135Z,20.80
2018-10-09T18:20:25.227Z,19.30
2018-10-09T18:23:00.312Z,18.20
2018-10-09T18:25:35.241Z,23.63
2018-10-09T18:28:10.273Z,21.67
2018-10-09T18:30:45.950Z,21.47
2018-10-09T18:33:21.181Z,20.67
2018-10-09T18:35:56.638Z,21.30
2018-10-09T18:38:31.702Z,20.40
2018-10-09T18:41:06.760Z,22.63
2018-10-09T18:43:42.786Z,20.83
2018-10-09T18:46:17.887Z,21.03
2018-10-09T18:48:53.073Z,21.20
2018-10-09T18:51:28.047Z,20.50
2018-10-09T18:54:03.266Z,23.37
2018-10-09T18:56:38.435Z,21.33
2018-10-09T18:59:13.485Z,23.23
2018-10-09T19:01:48.657Z,23.20
2018-10-09T19:04:23.713Z,25.30
2018-10-09T19:06:58.851Z,26.13
2018-10-09T19:09:34.662Z,27.43
2018-10-09T19:12:09.662Z,24.93
2018-10-09T19:14:45.210Z,25.47
2018-10-09T19:17:20.021Z,26.43
2018-10-09T19:19:54.943Z,26.60
2018-10-09T19:22:29.752Z,27.80
2018-10-09T19:25:05.394Z,28.93
2018-10-09T19:27:40.192Z,28.93
2018-10-09T19:30:15.431Z,27.17
2018-10-09T19:32:50.498Z,25.17
2018-10-09T19:35:25.642Z,29.23
2018-10-09T19:38:00.602Z,25.13
2018-10-09T19:40:35.918Z,29.60
2018-10-09T19:43:10.936Z,31.73
2018-10-09T19:45:46.663Z,31.70
2018-10-09T19:48:21.475Z,31.63
2018-10-09T19:50:56.876Z,27.23
2018-10-09T19:53:32.737Z,28.13
2018-10-09T19:56:07.879Z,28.73
2018-10-09T19:58:43.744Z,27.50
2018-10-09T20:01:19.244Z,26.50
2018-10-09T20:03:54.938Z,25.10
2018-10-09T20:06:29.903Z,29.70
2018-10-09T20:09:09.899Z,30.97
2018-10-09T20:11:44.971Z,26.20
2018-10-09T20:14:20.106Z,26.63
2018-10-09T20:16:55.825Z,32.43
2018-10-09T20:19:30.738Z,28.30
2018-10-09T20:22:08.883Z,28.53
2018-10-09T20:24:44.357Z,31.67
2018-10-09T20:27:19.311Z,28.73
2018-10-09T20:29:54.392Z,28.37
2018-10-09T20:32:31.848Z,30.97
2018-10-09T20:35:07.134Z,33.30
2018-10-09T20:37:42.166Z,27.80
2018-10-09T20:40:17.325Z,34.07
2018-10-09T20:42:52.929Z,33.33
2018-10-09T20:45:34.587Z,28.20
2018-10-09T20:48:09.605Z,28.80
2018-10-09T20:50:44.549Z,29.53
2018-10-09T20:53:19.534Z,29.33
2018-10-09T20:55:54.545Z,29.53
2018-10-09T20:58:29.827Z,28.70
2018-10-09T21:01:04.998Z,30.93
2018-10-09T21:03:40.253Z,30.60
2018-10-09T21:06:15.413Z,30.03
2018-10-09T21:08:50.517Z,28.17
2018-10-09T21:11:26.221Z,29.23
2018-10-09T21:14:02.679Z,34.37
2018-10-09T21:16:38.292Z,30.80
2018-10-09T21:19:13.631Z,27.67
2018-10-09T21:21:48.534Z,29.13
2018-10-09T21:24:23.653Z,31.40
2018-10-09T21:26:58.598Z,30.07
2018-10-09T21:29:33.590Z,30.50
2018-10-09T21:32:08.298Z,29.23
2018-10-09T21:34:43.205Z,33.30
2018-10-09T21:37:18.152Z,32.57
2018-10-09T21:39:53.081Z,31.67
2018-10-09T21:42:27.984Z,31.90
2018-10-09T21:45:03.175Z,34.13
2018-10-09T21:47:42.381Z,34.10
2018-10-09T21:50:17.248Z,30.87
2018-10-09T21:52:52.315Z,31.47
2018-10-09T21:55:27.859Z,31.83
2018-10-09T21:58:03.398Z,31.20
2018-10-09T22:00:43.798Z,37.27
2018-10-09T22:03:19.079Z,35.00
2018-10-09T22:05:54.138Z,33.10
2018-10-09T22:08:29.111Z,31.67
2018-10-09T22:11:04.836Z,32.20
2018-10-09T22:13:39.793Z,34.53
2018-10-09T22:16:14.944Z,33.60
2018-10-09T22:18:49.856Z,33.60
2018-10-09T22:21:25.593Z,33.23
2018-10-09T22:24:01.173Z,34.63
2018-10-09T22:26:36.184Z,39.30
2018-10-09T22:29:12.165Z,36.33
2018-10-09T22:31:47.855Z,34.87
2018-10-09T22:34:22.573Z,34.60
2018-10-09T22:36:57.640Z,35.47
2018-10-09T22:39:32.416Z,35.17
2018-10-09T22:42:07.595Z,33.07
2018-10-09T22:44:42.321Z,34.93
2018-10-09T22:47:17.536Z,37.33
2018-10-09T22:49:46.846Z,34.13
2018-10-09T22:52:21.998Z,39.20
2018-10-09T22:54:57.537Z,38.23
2018-10-09T22:57:32.382Z,34.57
2018-10-09T23:00:07.803Z,36.27
2018-10-09T23:02:43.204Z,35.87
2018-10-09T23:05:18.999Z,35.73
2018-10-09T23:07:53.993Z,37.30
2018-10-09T23:10:29.377Z,37.33
2018-10-09T23:13:04.450Z,38.73
2018-10-09T23:15:40.681Z,35.93
2018-10-09T23:18:16.325Z,39.20
2018-10-09T23:20:51.303Z,36.10
2018-10-09T23:23:26.262Z,35.33
2018-10-09T23:26:01.490Z,37.90
2018-10-09T23:28:36.385Z,37.03
2018-10-09T23:31:11.614Z,37.40
2018-10-09T23:33:46.485Z,42.60
2018-10-09T23:36:21.360Z,43.03
2018-10-09T23:38:56.209Z,42.03
2018-10-09T23:41:31.541Z,38.00
2018-10-09T23:44:06.700Z,38.07
2018-10-09T23:46:41.489Z,37.80
2018-10-09T23:49:16.425Z,38.10
2018-10-09T23:51:51.232Z,40.73
2018-10-09T23:54:26.459Z,37.77
2018-10-09T23:57:02.346Z,37.40
2018-10-09T23:59:37.172Z,41.23
